Time;durP1;ratioP1;P1;durP2;ratioP2;P2;SDS_P1;SDS_P2;PMS_P1;PMS_P2;Temp;Humidity;BMP_temperature;BMP_pressure;BME280_temperature;BME280_humidity;BME280_pressure;Samples;Min_cycle;Max_cycle;Signal;HPM_P1;HPM_P2
2022/08/21 00:00:25;;;;;;;4.63;2.80;;;;;;;22.10;100.00;96426.94;5021104;28;20046;-48
2022/08/21 00:02:56;;;;;;;7.07;2.83;;;;;;;22.07;100.00;96425.50;5014093;28;20081;-45
2022/08/21 00:05:25;;;;;;;6.75;2.92;;;;;;;21.79;100.00;96433.97;5019569;28;20081;-48
2022/08/21 00:07:55;;;;;;;12.45;2.97;;;;;;;21.66;100.00;96432.19;5017280;28;20073;-48
2022/08/21 00:10:24;;;;;;;6.25;2.90;;;;;;;21.49;100.00;96434.53;5019944;28;20074;-42
2022/08/21 00:12:53;;;;;;;4.88;2.50;;;;;;;21.50;100.00;96438.03;5007559;28;20054;-46
2022/08/21 00:15:26;;;;;;;6.57;2.80;;;;;;;21.58;100.00;96429.75;5018796;28;20558;-48
2022/08/21 00:17:55;;;;;;;9.45;2.92;;;;;;;21.95;100.00;96429.91;5021889;28;20085;-46
2022/08/21 00:20:24;;;;;;;6.40;2.70;;;;;;;21.86;100.00;96429.38;5020402;28;20108;-44
2022/08/21 00:22:52;;;;;;;5.45;3.00;;;;;;;21.53;100.00;96424.19;5018499;28;20080;-47
2022/08/21 00:25:22;;;;;;;3.78;2.90;;;;;;;21.97;100.00;96428.69;5016781;28;20661;-47
2022/08/21 00:27:53;;;;;;;;;;;;;;;22.29;100.00;96423.28;5016029;28;20083;-53
2022/08/21 00:30:25;;;;;;;5.78;2.83;;;;;;;22.30;100.00;96419.59;5017761;28;19967;-56
2022/08/21 00:32:54;;;;;;;7.60;3.20;;;;;;;22.65;100.00;96413.69;5011369;28;20077;-46
2022/08/21 00:35:26;;;;;;;5.53;2.90;;;;;;;22.82;100.00;96419.31;5012736;28;20102;-51
2022/08/21 00:37:54;;;;;;;8.95;3.13;;;;;;;22.82;100.00;96414.75;5018440;28;20073;-53
2022/08/21 00:40:26;;;;;;;7.15;3.28;;;;;;;22.34;100.00;96414.59;5018893;28;20065;-53
2022/08/21 00:42:55;;;;;;;11.52;3.05;;;;;;;22.63;100.00;96407.69;5020132;28;20711;-52
2022/08/21 00:45:27;;;;;;;10.75;3.00;;;;;;;22.69;100.00;96410.31;5019259;28;20108;-53
2022/08/21 00:47:55;;;;;;;8.10;3.15;;;;;;;22.17;100.00;96408.94;5020078;28;20081;-45
2022/08/21 00:50:27;;;;;;;5.28;3.10;;;;;;;21.73;100.00;96414.16;5020500;28;20077;-48
2022/08/21 00:52:56;;;;;;;6.55;3.03;;;;;;;21.63;100.00;96407.63;5024074;28;20046;-44
2022/08/21 00:55:25;;;;;;;4.83;2.80;;;;;;;21.50;100.00;96408.50;5024767;28;20105;-49
2022/08/21 00:57:56;;;;;;;3.67;2.53;;;;;;;21.58;100.00;96412.84;5019119;28;20089;-47
2022/08/21 01:00:30;;;;;;;4.32;2.38;;;;;;;21.02;100.00;96406.22;5013748;28;20084;-50
2022/08/21 01:03:01;;;;;;;4.72;2.70;;;;;;;21.28;100.00;96405.31;5017245;28;20081;-47
2022/08/21 01:05:34;;;;;;;6.57;2.72;;;;;;;21.31;100.00;96399.50;5022935;28;20547;-46
2022/08/21 01:08:03;;;;;;;3.17;2.67;;;;;;;21.38;100.00;96397.66;5020636;28;20457;-46
2022/08/21 01:10:33;;;;;;;6.07;2.60;;;;;;;21.42;100.00;96401.53;5016874;28;20088;-51
2022/08/21 01:13:02;;;;;;;4.40;2.60;;;;;;;21.03;100.00;96402.53;5020092;28;20089;-48
2022/08/21 01:15:35;;;;;;;5.07;2.70;;;;;;;21.33;100.00;96387.53;5017026;28;20524;-45
2022/08/21 01:18:05;;;;;;;3.90;2.83;;;;;;;21.63;100.00;96388.84;5024545;28;20674;-47
2022/08/21 01:20:33;;;;;;;6.55;2.90;;;;;;;21.18;100.00;96397.72;5021505;28;20523;-49
2022/08/21 01:23:04;;;;;;;5.38;2.72;;;;;;;21.48;100.00;96397.19;5016677;28;20081;-47
2022/08/21 01:25:33;;;;;;;3.72;2.55;;;;;;;21.19;100.00;96391.28;5020589;28;20731;-47
2022/08/21 01:28:08;;;;;;;6.15;3.08;;;;;;;21.17;100.00;96392.56;5013404;28;20089;-48
2022/08/21 01:30:38;;;;;;;5.47;2.85;;;;;;;20.95;100.00;96392.84;5018878;28;20096;-48
2022/08/21 01:33:07;;;;;;;3.95;2.80;;;;;;;21.09;100.00;96396.28;5014390;28;20116;-44
2022/08/21 01:35:35;;;;;;;5.43;2.72;;;;;;;21.07;100.00;96393.00;5019371;28;20103;-44
2022/08/21 01:38:05;;;;;;;5.70;2.75;;;;;;;21.21;100.00;96389.22;5022128;28;20084;-43
2022/08/21 01:40:34;;;;;;;5.60;2.80;;;;;;;21.03;100.00;96391.81;5021595;28;20526;-51
2022/08/21 01:43:02;;;;;;;5.72;2.85;;;;;;;21.19;100.00;96393.97;5024094;28;20060;-45
2022/08/21 01:45:31;;;;;;;6.22;3.10;;;;;;;20.98;100.00;96399.63;5015955;28;20066;-43
2022/08/21 01:48:00;;;;;;;8.25;3.20;;;;;;;20.95;100.00;96394.69;5022191;28;20092;-47
2022/08/21 01:50:28;;;;;;;7.70;3.20;;;;;;;20.93;100.00;96391.41;5018320;28;20560;-47
2022/08/21 01:52:57;;;;;;;8.10;3.20;;;;;;;21.06;100.00;96396.75;5014927;28;20088;-49
2022/08/21 01:55:27;;;;;;;6.30;3.05;;;;;;;20.66;100.00;96390.66;5020269;28;20069;-48
2022/08/21 01:57:56;;;;;;;6.63;3.10;;;;;;;20.74;100.00;96385.06;5018691;28;20114;-46
2022/08/21 02:00:24;;;;;;;9.32;2.97;;;;;;;20.64;100.00;96390.84;5020226;28;20061;-49
2022/08/21 02:02:53;;;;;;;4.13;2.90;;;;;;;20.25;100.00;96397.06;5020569;28;20069;-47
2022/08/21 02:05:22;;;;;;;8.95;3.20;;;;;;;20.17;100.00;96392.75;5016759;28;20069;-48
2022/08/21 02:07:52;;;;;;;4.57;2.90;;;;;;;20.12;100.00;96405.94;5020474;28;20668;-49
2022/08/21 02:10:24;;;;;;;4.63;2.90;;;;;;;20.28;100.00;96400.16;5016770;28;20104;-48
2022/08/21 02:12:54;;;;;;;6.47;3.22;;;;;;;20.42;100.00;96395.63;5012529;28;20552;-48
2022/08/21 02:15:23;;;;;;;5.25;2.78;;;;;;;20.33;100.00;96388.81;5015812;28;20042;-46
2022/08/21 02:17:54;;;;;;;7.55;3.20;;;;;;;20.53;100.00;96386.97;5016168;28;20098;-45
2022/08/21 02:20:24;;;;;;;4.65;3.05;;;;;;;20.33;100.00;96392.31;5020103;28;20089;-49
2022/08/21 02:22:53;;;;;;;4.13;2.90;;;;;;;20.43;100.00;96386.53;5014490;28;20085;-44
2022/08/21 02:25:23;;;;;;;4.88;3.00;;;;;;;20.03;100.00;96389.25;5014292;28;20096;-52
2022/08/21 02:27:54;;;;;;;5.13;2.80;;;;;;;20.11;100.00;96389.03;5015794;28;20077;-51
2022/08/21 02:30:26;;;;;;;4.47;2.85;;;;;;;20.23;100.00;96380.38;5011685;28;20089;-50
2022/08/21 02:32:54;;;;;;;6.93;3.13;;;;;;;19.96;100.00;96390.25;5018413;28;20089;-51
2022/08/21 02:35:23;;;;;;;6.57;3.22;;;;;;;20.29;100.00;96380.38;5026899;28;20077;-44
2022/08/21 02:37:55;;;;;;;6.22;3.05;;;;;;;20.11;100.00;96382.88;5020200;28;20508;-45
2022/08/21 02:40:27;;;;;;;6.00;2.90;;;;;;;20.15;100.00;96384.09;5012791;28;20085;-50
2022/08/21 02:42:57;;;;;;;4.97;2.83;;;;;;;19.96;100.00;96380.41;5018806;28;20073;-44
2022/08/21 02:45:26;;;;;;;5.35;3.30;;;;;;;19.90;100.00;96382.03;5013139;28;20093;-46
2022/08/21 02:47:55;;;;;;;5.57;2.95;;;;;;;19.60;100.00;96389.56;5015848;28;20559;-45
2022/08/21 02:50:26;;;;;;;9.65;3.20;;;;;;;20.09;100.00;96379.56;5015564;28;20096;-45
2022/08/21 02:52:56;;;;;;;4.40;3.00;;;;;;;20.09;100.00;96380.38;5018596;28;20095;-44
2022/08/21 02:55:27;;;;;;;7.50;3.30;;;;;;;19.82;100.00;96381.41;5020748;28;20108;-44
2022/08/21 02:57:57;;;;;;;5.93;3.22;;;;;;;19.80;100.00;96381.63;5019989;28;20559;-46
2022/08/21 03:00:27;;;;;;;5.13;3.42;;;;;;;19.54;100.00;96381.53;5023954;28;20747;-51
2022/08/21 03:02:56;;;;;;;5.63;2.97;;;;;;;19.66;100.00;96382.63;5018987;28;20069;-52
2022/08/21 03:05:26;;;;;;;6.15;2.92;;;;;;;19.77;100.00;96383.88;5024297;28;20091;-49
2022/08/21 03:07:55;;;;;;;6.65;3.15;;;;;;;19.29;100.00;96375.94;5018065;28;20084;-51
2022/08/21 03:10:24;;;;;;;4.20;2.88;;;;;;;19.47;100.00;96386.06;5020279;28;20112;-48
2022/08/21 03:12:54;;;;;;;5.45;3.20;;;;;;;19.78;100.00;96381.00;5017183;28;20089;-53
2022/08/21 03:15:24;;;;;;;4.63;3.05;;;;;;;19.56;100.00;96391.03;5016771;28;20068;-50
2022/08/21 03:17:54;;;;;;;10.23;3.55;;;;;;;19.63;100.00;96397.22;5017410;28;20464;-52
2022/08/21 03:20:25;;;;;;;5.35;3.17;;;;;;;19.27;100.00;96391.34;5020686;28;20073;-51
2022/08/21 03:22:54;;;;;;;7.43;3.03;;;;;;;19.19;100.00;96387.81;5019359;28;20088;-50
2022/08/21 03:25:24;;;;;;;4.90;2.95;;;;;;;19.24;100.00;96381.06;5022382;28;20096;-52
2022/08/21 03:28:11;;;;;;;8.35;3.15;;;;;;;19.17;100.00;96389.06;5019620;28;20543;-48
2022/08/21 03:30:43;;;;;;;5.07;2.95;;;;;;;19.16;100.00;96390.88;5019329;28;21097;-51
2022/08/21 03:33:12;;;;;;;5.72;3.03;;;;;;;19.07;100.00;96388.63;5018989;28;20568;-51
2022/08/21 03:35:43;;;;;;;3.85;2.85;;;;;;;19.16;100.00;96395.41;5012140;28;20559;-52
2022/08/21 03:38:12;;;;;;;6.68;3.13;;;;;;;19.53;100.00;96383.41;5015789;28;20548;-53
2022/08/21 03:40:41;;;;;;;5.22;2.92;;;;;;;19.06;100.00;96390.44;5016958;28;20081;-52
2022/08/21 03:43:10;;;;;;;5.53;2.78;;;;;;;18.98;100.00;96386.09;5014420;28;20066;-51
2022/08/21 03:45:39;;;;;;;3.40;2.75;;;;;;;19.02;100.00;96391.88;5012900;28;20092;-51
2022/08/21 03:48:09;;;;;;;5.10;2.97;;;;;;;19.23;100.00;96395.44;5012710;28;20077;-49
2022/08/21 03:50:43;;;;;;;3.88;3.40;;;;;;;19.33;100.00;96391.34;5014440;28;20084;-47
2022/08/21 03:53:13;;;;;;;5.63;3.00;;;;;;;19.43;100.00;96389.13;5018782;28;20503;-50
2022/08/21 03:55:46;;;;;;;5.90;3.35;;;;;;;18.98;100.00;96393.28;5017800;28;20438;-48
2022/08/21 03:58:15;;;;;;;4.78;3.20;;;;;;;19.39;100.00;96400.44;5008513;28;20559;-52
2022/08/21 04:00:45;;;;;;;3.20;2.90;;;;;;;19.14;100.00;96398.31;5011238;28;20089;-53
2022/08/21 04:03:15;;;;;;;4.03;3.20;;;;;;;19.13;100.00;96399.34;5015958;28;20093;-51
2022/08/21 04:05:45;;;;;;;4.65;3.40;;;;;;;19.30;100.00;96401.63;5018029;28;20088;-53
2022/08/21 04:08:15;;;;;;;4.25;3.28;;;;;;;19.38;100.00;96398.78;5018523;28;20077;-54
2022/08/21 04:10:45;;;;;;;5.63;3.22;;;;;;;19.23;100.00;96398.13;5022587;28;20069;-46
2022/08/21 04:13:14;;;;;;;4.47;3.10;;;;;;;19.22;100.00;96408.00;5013350;28;20570;-51
2022/08/21 04:15:42;;;;;;;5.78;3.05;;;;;;;19.19;100.00;96405.72;5017951;28;20528;-53
2022/08/21 04:18:11;;;;;;;4.20;3.20;;;;;;;19.55;100.00;96393.91;5021043;28;20477;-49
2022/08/21 04:20:42;;;;;;;5.15;3.10;;;;;;;19.71;100.00;96406.09;5018162;28;20570;-50
2022/08/21 04:23:18;;;;;;;5.22;3.45;;;;;;;19.61;100.00;96404.63;5019987;28;20077;-52
2022/08/21 04:25:52;;;;;;;6.10;3.30;;;;;;;20.12;100.00;96401.38;5017649;28;20084;-53
2022/08/21 04:28:20;;;;;;;9.32;3.63;;;;;;;19.97;100.00;96413.34;5018449;28;20053;-51
2022/08/21 04:30:51;;;;;;;5.55;3.40;;;;;;;20.21;100.00;96409.25;5019182;28;21614;-50
2022/08/21 04:33:20;;;;;;;6.53;3.53;;;;;;;19.72;100.00;96419.28;5019699;28;20620;-54
2022/08/21 04:35:51;;;;;;;3.70;3.13;;;;;;;19.93;100.00;96418.28;5018972;28;20150;-52
2022/08/21 04:38:20;;;;;;;4.20;3.17;;;;;;;19.88;100.00;96428.75;5021446;28;20077;-53
2022/08/21 04:40:49;;;;;;;3.42;2.95;;;;;;;20.13;100.00;96426.31;5019532;28;20077;-52
2022/08/21 04:43:17;;;;;;;4.50;3.30;;;;;;;20.32;100.00;96424.66;5020643;28;20584;-50
2022/08/21 04:45:47;;;;;;;7.03;3.28;;;;;;;20.17;100.00;96427.56;5018458;28;20092;-53
2022/08/21 04:48:18;;;;;;;4.72;3.40;;;;;;;20.26;100.00;96425.50;5021374;28;20084;-52
2022/08/21 04:50:51;;;;;;;3.65;3.10;;;;;;;20.40;100.00;96429.81;5021470;28;20496;-53
2022/08/21 04:53:35;;;;;;;4.65;3.10;;;;;;;20.53;100.00;96427.16;5020156;28;20078;-50
2022/08/21 04:56:07;;;;;;;3.92;3.10;;;;;;;20.60;100.00;96432.50;5020723;28;20124;-51
2022/08/21 04:58:37;;;;;;;4.72;3.20;;;;;;;20.56;100.00;96429.41;5016334;28;20077;-52
2022/08/21 05:01:08;;;;;;;5.00;3.30;;;;;;;20.51;100.00;96431.06;5019661;28;20084;-46
2022/08/21 05:03:37;;;;;;;3.95;3.33;;;;;;;20.69;100.00;96431.25;5016177;28;21751;-55
2022/08/21 05:06:11;;;;;;;4.47;3.63;;;;;;;20.49;100.00;96430.44;5019766;28;20123;-52
2022/08/21 05:08:40;;;;;;;3.67;3.30;;;;;;;20.73;100.00;96427.13;5021157;28;20073;-53
2022/08/21 05:11:09;;;;;;;3.97;3.60;;;;;;;21.60;100.00;96416.94;5013597;28;20084;-52
2022/08/21 05:13:37;;;;;;;4.28;3.88;;;;;;;22.46;100.00;96410.94;5021604;28;20551;-50
2022/08/21 05:16:06;;;;;;;3.28;2.97;;;;;;;22.24;100.00;96407.03;5014087;28;20089;-52
2022/08/21 05:18:34;;;;;;;5.75;3.35;;;;;;;23.03;100.00;96407.31;5020663;28;20076;-50
2022/08/21 05:21:03;;;;;;;3.20;2.90;;;;;;;23.54;100.00;96406.91;5017202;28;20092;-54
2022/08/21 05:23:33;;;;;;;3.58;2.67;;;;;;;24.10;100.00;96404.88;5020216;28;20065;-53
2022/08/21 05:26:01;;;;;;;3.20;2.33;;;;;;;24.23;100.00;96409.22;5014837;28;20077;-53
2022/08/21 05:28:30;;;;;;;2.75;1.98;;;;;;;24.70;100.00;96411.97;5015394;28;20621;-48
2022/08/21 05:30:58;;;;;;;5.38;2.20;;;;;;;24.19;100.00;96408.88;5014637;28;20077;-52
2022/08/21 05:33:27;;;;;;;10.90;2.50;;;;;;;24.22;100.00;96416.47;5017979;28;20143;-52
2022/08/21 05:35:56;;;;;;;3.08;2.20;;;;;;;23.62;100.00;96417.34;5013706;28;20473;-53
2022/08/21 05:38:27;;;;;;;2.43;2.03;;;;;;;22.52;100.00;96430.75;5018639;28;20839;-49
2022/08/21 05:40:56;;;;;;;2.17;1.98;;;;;;;22.25;100.00;96428.28;5018570;28;20092;-44
2022/08/21 05:43:25;;;;;;;2.35;2.15;;;;;;;22.33;100.00;96429.06;5015201;28;20709;-48
2022/08/21 05:45:53;;;;;;;6.00;2.33;;;;;;;22.54;100.00;96430.53;5023555;28;20524;-47
2022/08/21 05:48:23;;;;;;;2.65;2.10;;;;;;;22.03;100.00;96441.25;5015665;28;20092;-49
2022/08/21 05:50:54;;;;;;;2.55;2.33;;;;;;;22.08;100.00;96442.44;5017212;28;20689;-51
2022/08/21 05:53:23;;;;;;;2.92;2.42;;;;;;;21.59;100.00;96436.75;5016277;28;20528;-51
2022/08/21 05:55:52;;;;;;;3.60;2.50;;;;;;;21.96;100.00;96436.97;5016691;28;20084;-49
2022/08/21 05:58:22;;;;;;;3.45;2.50;;;;;;;21.95;100.00;96444.16;5021200;28;20519;-53
2022/08/21 06:00:52;;;;;;;4.50;2.33;;;;;;;21.62;100.00;96439.03;5015696;28;20519;-47
2022/08/21 06:03:22;;;;;;;4.05;2.38;;;;;;;22.44;100.00;96441.78;5014831;28;20085;-52
2022/08/21 06:05:51;;;;;;;2.65;2.28;;;;;;;21.68;100.00;96445.38;5018731;28;20081;-51
2022/08/21 06:08:20;;;;;;;2.70;2.40;;;;;;;21.82;100.00;96441.59;5015032;28;20654;-48
2022/08/21 06:10:50;;;;;;;3.78;2.50;;;;;;;21.60;100.00;96440.25;5013882;28;20077;-46
2022/08/21 06:13:19;;;;;;;3.38;2.40;;;;;;;21.58;100.00;96435.13;5016917;28;20484;-51
2022/08/21 06:15:50;;;;;;;4.47;2.43;;;;;;;21.50;100.00;96440.72;5020141;28;20463;-48
2022/08/21 06:18:18;;;;;;;3.25;2.28;;;;;;;21.56;100.00;96431.81;5022997;28;20893;-48
2022/08/21 06:20:47;;;;;;;3.05;2.33;;;;;;;21.56;100.00;96447.91;5019998;28;20085;-47
2022/08/21 06:23:15;;;;;;;5.88;2.83;;;;;;;21.56;100.00;96431.81;5017753;28;20077;-49
2022/08/21 06:25:44;;;;;;;3.28;2.67;;;;;;;21.75;100.00;96432.75;5015218;28;20042;-51
2022/08/21 06:28:12;;;;;;;4.78;2.67;;;;;;;21.69;100.00;96438.97;5018730;28;20084;-49
2022/08/21 06:30:40;;;;;;;5.07;2.58;;;;;;;22.19;100.00;96436.41;5016513;28;20558;-51
2022/08/21 06:33:10;;;;;;;3.90;2.70;;;;;;;21.94;100.00;96428.28;5021536;28;20080;-49
2022/08/21 06:35:39;;;;;;;;;;;;;;;21.97;100.00;96444.78;5022528;28;20081;-47
2022/08/21 06:38:09;;;;;;;4.70;2.97;;;;;;;22.20;100.00;96432.69;5018405;28;20051;-53
2022/08/21 06:40:38;;;;;;;4.40;2.75;;;;;;;21.96;100.00;96440.47;5022629;28;20465;-50
2022/08/21 06:43:17;;;;;;;3.80;2.92;;;;;;;22.07;100.00;96444.31;5022701;28;20532;-48
2022/08/21 06:45:45;;;;;;;5.40;2.78;;;;;;;22.12;100.00;96438.28;5020908;28;20081;-49
2022/08/21 06:48:15;;;;;;;4.03;3.20;;;;;;;22.09;100.00;96436.84;5021101;28;20120;-49
2022/08/21 06:50:47;;;;;;;4.53;2.70;;;;;;;22.30;100.00;96435.72;5023640;28;20100;-50
2022/08/21 06:53:17;;;;;;;5.03;2.88;;;;;;;22.45;100.00;96428.13;5022930;28;20073;-47
2022/08/21 06:55:46;;;;;;;3.95;3.08;;;;;;;22.80;100.00;96424.09;5024019;28;20080;-50
2022/08/21 06:58:15;;;;;;;3.85;3.10;;;;;;;22.91;100.00;96415.28;5021763;28;20073;-44
2022/08/21 07:00:46;;;;;;;5.95;3.65;;;;;;;22.65;100.00;96405.63;5017724;28;20469;-43
2022/08/21 07:03:24;;;;;;;6.35;3.42;;;;;;;22.71;100.00;96412.78;5022364;28;20057;-45
2022/08/21 07:05:52;;;;;;;4.88;3.55;;;;;;;22.78;100.00;96412.72;5021480;28;20079;-44
2022/08/21 07:08:21;;;;;;;5.53;3.40;;;;;;;23.09;100.00;96415.31;5018665;28;20084;-45
2022/08/21 07:10:50;;;;;;;4.88;3.58;;;;;;;22.67;100.00;96414.28;5019061;28;20085;-44
2022/08/21 07:13:18;;;;;;;4.30;3.58;;;;;;;22.89;100.00;96412.00;5022188;28;20456;-45
2022/08/21 07:15:47;;;;;;;4.97;3.53;;;;;;;23.08;100.00;96413.66;5021992;28;20088;-46
2022/08/21 07:18:15;;;;;;;4.00;3.03;;;;;;;22.95;100.00;96411.09;5025136;28;20474;-45
2022/08/21 07:20:45;;;;;;;6.07;3.95;;;;;;;23.06;100.00;96402.31;5014579;28;20077;-44
2022/08/21 07:23:22;;;;;;;5.13;3.92;;;;;;;23.35;100.00;96410.66;5021138;28;20473;-44
2022/08/21 07:25:51;;;;;;;4.22;3.38;;;;;;;23.65;100.00;96402.59;5028939;28;20088;-46
2022/08/21 07:28:19;;;;;;;4.50;3.85;;;;;;;23.53;100.00;96394.47;5029460;28;20578;-48
2022/08/21 07:30:51;;;;;;;4.43;3.60;;;;;;;23.74;100.00;96400.41;5025227;28;20084;-48
2022/08/21 07:33:20;;;;;;;5.78;3.88;;;;;;;24.13;100.00;96404.41;5018281;28;20103;-47
2022/08/21 07:35:50;;;;;;;4.78;3.90;;;;;;;24.37;100.00;96405.25;5026107;28;20614;-46
2022/08/21 07:38:18;;;;;;;5.90;3.67;;;;;;;23.73;100.00;96405.00;5026838;28;20077;-43
2022/08/21 07:40:48;;;;;;;6.60;4.00;;;;;;;24.12;100.00;96408.13;5028615;28;20554;-44
2022/08/21 07:43:17;;;;;;;5.45;4.15;;;;;;;24.07;100.00;96405.31;5027170;28;20540;-49
2022/08/21 07:45:46;;;;;;;5.97;4.05;;;;;;;24.08;100.00;96407.78;5027063;28;20520;-44
2022/08/21 07:48:14;;;;;;;6.90;4.18;;;;;;;24.13;100.00;96409.78;5027554;28;20092;-46
2022/08/21 07:50:43;;;;;;;6.90;3.75;;;;;;;24.68;100.00;96406.81;5024469;28;20088;-45
2022/08/21 07:53:13;;;;;;;5.20;3.95;;;;;;;24.95;100.00;96392.81;5025218;28;20108;-45
2022/08/21 07:55:41;;;;;;;6.28;3.90;;;;;;;25.12;100.00;96403.72;5027033;28;20088;-47
2022/08/21 07:58:10;;;;;;;6.18;4.28;;;;;;;24.30;100.00;96399.97;5028785;28;20065;-46
2022/08/21 08:00:38;;;;;;;5.70;3.85;;;;;;;25.25;100.00;96390.78;5028328;28;20089;-44
2022/08/21 08:03:07;;;;;;;7.25;4.53;;;;;;;25.05;100.00;96393.88;5024759;28;20080;-48
2022/08/21 08:05:37;;;;;;;7.25;4.32;;;;;;;25.58;100.00;96392.78;5026170;28;20631;-43
2022/08/21 08:08:05;;;;;;;7.97;4.43;;;;;;;25.18;100.00;96390.09;5026983;28;20515;-45
2022/08/21 08:10:35;;;;;;;6.72;4.43;;;;;;;24.96;100.00;96389.09;5024838;28;20547;-44
2022/08/21 08:13:03;;;;;;;;;;;;;;;25.67;100.00;96378.88;5028977;28;20081;-47
2022/08/21 08:15:37;;;;;;;6.63;4.00;;;;;;;25.64;100.00;96382.91;5028313;28;19964;-47
2022/08/21 08:18:06;;;;;;;7.28;4.45;;;;;;;25.99;100.00;96385.47;5016576;28;20073;-45
2022/08/21 08:20:34;;;;;;;6.25;4.68;;;;;;;24.90;100.00;96387.31;5021665;28;20088;-48
2022/08/21 08:23:03;;;;;;;4.63;4.03;;;;;;;26.13;100.00;96383.25;5027632;28;20498;-45
2022/08/21 08:25:31;;;;;;;6.68;4.55;;;;;;;26.04;100.00;96387.41;5026886;28;20084;-45
2022/08/21 08:28:06;;;;;;;5.13;4.40;;;;;;;25.82;100.00;96386.50;5022714;28;20084;-46
2022/08/21 08:30:45;;;;;;;4.78;4.30;;;;;;;25.76;100.00;96382.84;5023053;28;20076;-43
2022/08/21 08:33:14;;;;;;;6.82;4.57;;;;;;;25.56;100.00;96383.28;5017905;28;20064;-47
2022/08/21 08:35:43;;;;;;;5.63;4.30;;;;;;;26.18;100.00;96380.63;5023937;28;20085;-44
2022/08/21 08:38:11;;;;;;;5.45;4.40;;;;;;;26.36;100.00;96378.72;5027858;28;20233;-46
2022/08/21 08:40:47;;;;;;;7.68;4.93;;;;;;;26.55;100.00;96379.34;5025121;28;20084;-47
2022/08/21 08:43:17;;;;;;;6.88;4.20;;;;;;;26.33;100.00;96379.25;5026490;28;20073;-44
2022/08/21 08:45:50;;;;;;;5.53;4.68;;;;;;;26.47;100.00;96378.69;5024037;28;20071;-44
2022/08/21 08:48:35;;;;;;;7.35;4.47;;;;;;;26.27;100.00;96384.56;5025877;28;20060;-43
2022/08/21 08:51:06;;;;;;;5.70;4.60;;;;;;;26.32;100.00;96381.13;5025293;28;20073;-47
2022/08/21 08:53:46;;;;;;;6.47;4.60;;;;;;;26.39;100.00;96380.94;5027276;28;20119;-46
2022/08/21 08:56:14;;;;;;;5.97;5.22;;;;;;;25.99;100.00;96377.34;5021356;28;20085;-47
2022/08/21 08:58:45;;;;;;;7.45;5.18;;;;;;;26.06;100.00;96381.78;5025713;28;20572;-44
2022/08/21 09:01:17;;;;;;;5.97;4.68;;;;;;;26.11;100.00;96379.97;5023876;28;20405;-43
2022/08/21 09:03:49;;;;;;;5.28;4.43;;;;;;;26.73;100.00;96377.16;5028491;28;20064;-44
2022/08/21 09:06:27;;;;;;;7.10;4.32;;;;;;;26.92;100.00;96376.88;5022564;28;20084;-48
2022/08/21 09:09:03;;;;;;;5.75;5.10;;;;;;;27.36;100.00;96379.63;5031541;28;20057;-45
2022/08/21 09:11:37;;;;;;;6.15;4.55;;;;;;;26.75;100.00;96380.44;5029981;28;20096;-43
2022/08/21 09:14:22;;;;;;;6.72;4.68;;;;;;;27.06;100.00;96374.63;5029444;28;20089;-46
2022/08/21 09:16:57;;;;;;;6.78;4.75;;;;;;;27.71;100.00;96373.78;5031578;28;20084;-45
2022/08/21 09:19:38;;;;;;;6.07;4.80;;;;;;;27.43;100.00;96374.84;5031028;28;20080;-46
2022/08/21 09:22:10;;;;;;;7.05;4.63;;;;;;;26.59;100.00;96370.47;5031039;28;20097;-50
2022/08/21 09:24:49;;;;;;;7.43;5.22;;;;;;;27.24;100.00;96373.53;5031815;28;20084;-45
2022/08/21 09:27:20;;;;;;;12.43;5.50;;;;;;;28.21;100.00;96364.50;5030145;28;20114;-44
2022/08/21 09:29:54;;;;;;;5.68;4.93;;;;;;;27.83;100.00;96373.66;5030669;28;20088;-45
2022/08/21 09:32:25;;;;;;;7.25;5.07;;;;;;;28.02;100.00;96372.22;5029716;28;20089;-44
2022/08/21 09:35:08;;;;;;;6.35;5.22;;;;;;;28.50;100.00;96373.16;5028527;28;20104;-43
2022/08/21 09:37:48;;;;;;;5.53;5.00;;;;;;;29.03;100.00;96371.31;5023094;28;20562;-49
2022/08/21 09:40:24;;;;;;;5.05;4.45;;;;;;;29.18;100.00;96375.19;5027386;28;20079;-50
2022/08/21 09:42:56;;;;;;;5.07;4.53;;;;;;;28.44;100.00;96374.19;5024507;28;20077;-49
2022/08/21 09:45:27;;;;;;;6.30;5.20;;;;;;;28.28;100.00;96373.22;5027547;28;20081;-47
2022/08/21 09:48:11;;;;;;;8.52;5.20;;;;;;;29.07;100.00;96366.19;5030372;28;20100;-46
2022/08/21 09:50:41;;;;;;;9.60;5.70;;;;;;;29.63;100.00;96363.72;5028466;28;20074;-46
2022/08/21 09:53:18;;;;;;;6.23;4.70;;;;;;;29.66;100.00;96365.06;5030121;28;20089;-45
2022/08/21 09:58:41;;;;;;;6.38;4.57;;;;;;;30.40;100.00;96356.44;5030928;28;20432;-45
2022/08/21 10:01:16;;;;;;;6.43;4.40;;;;;;;30.17;100.00;96354.22;5030652;28;20088;-47
2022/08/21 10:03:45;;;;;;;6.70;4.00;;;;;;;29.53;100.00;96352.78;5029348;28;20085;-46
2022/08/21 10:06:23;;;;;;;5.32;4.68;;;;;;;29.97;100.00;96355.03;5029606;28;20089;-45
2022/08/21 10:08:52;;;;;;;7.85;4.40;;;;;;;29.50;100.00;96351.41;5028864;28;20092;-46
2022/08/21 10:11:25;;;;;;;4.18;3.38;;;;;;;30.63;100.00;96344.16;5022776;28;20081;-46
2022/08/21 10:13:59;;;;;;;5.88;4.78;;;;;;;29.92;100.00;96350.41;5030233;28;20081;-45
2022/08/21 10:16:37;;;;;;;4.50;4.10;;;;;;;29.39;100.00;96357.06;5023481;28;20080;-45
2022/08/21 10:19:16;;;;;;;5.32;4.68;;;;;;;29.59;100.00;96354.44;5024896;28;20073;-49
2022/08/21 10:21:50;;;;;;;5.00;4.38;;;;;;;30.22;100.00;96349.66;5029517;28;20538;-47
2022/08/21 10:24:23;;;;;;;5.07;4.00;;;;;;;30.39;100.00;96341.22;5028989;28;20088;-46
2022/08/21 10:27:09;;;;;;;5.32;4.82;;;;;;;29.84;100.00;96340.09;5029362;28;20073;-45
2022/08/21 10:29:46;;;;;;;5.90;4.10;;;;;;;30.65;100.00;96346.59;5023558;28;20065;-49
2022/08/21 10:32:26;;;;;;;7.40;4.55;;;;;;;31.39;93.41;96340.41;5027130;28;20089;-50
2022/08/21 10:35:02;;;;;;;3.45;3.15;;;;;;;31.28;88.39;96338.81;5025169;28;20587;-45
2022/08/21 10:37:38;;;;;;;4.10;3.03;;;;;;;30.97;78.52;96338.09;5028992;28;20694;-49
2022/08/21 10:40:12;;;;;;;5.22;3.55;;;;;;;30.64;78.84;96332.16;5027762;28;20096;-49
2022/08/21 10:42:50;;;;;;;4.28;3.40;;;;;;;30.35;85.27;96342.84;5029437;28;20081;-48
2022/08/21 10:45:30;;;;;;;5.38;3.40;;;;;;;30.32;79.22;96337.09;5030209;28;20085;-48
2022/08/21 10:48:05;;;;;;;4.88;3.67;;;;;;;30.82;88.89;96333.50;5030233;28;20677;-46
2022/08/21 10:50:40;;;;;;;4.40;4.00;;;;;;;30.92;87.88;96336.19;5023529;28;20085;-47
2022/08/21 10:53:29;;;;;;;6.63;4.22;;;;;;;30.86;85.78;96331.84;5026064;28;20633;-45
2022/08/21 10:56:02;;;;;;;4.40;3.72;;;;;;;29.97;100.00;96334.13;5028622;28;20077;-46
2022/08/21 10:58:35;;;;;;;4.20;3.80;;;;;;;29.96;100.00;96335.19;5028643;28;20077;-45
2022/08/21 11:01:08;;;;;;;4.95;3.63;;;;;;;29.52;100.00;96341.06;5025177;28;20123;-45
2022/08/21 11:03:42;;;;;;;5.32;3.67;;;;;;;29.45;100.00;96334.25;5029661;28;20135;-45
2022/08/21 11:06:15;;;;;;;5.82;3.72;;;;;;;29.24;100.00;96334.19;5025377;28;20092;-45
2022/08/21 11:08:46;;;;;;;5.57;3.92;;;;;;;29.00;100.00;96335.75;5029235;28;20065;-45
2022/08/21 11:11:20;;;;;;;5.13;4.03;;;;;;;29.09;100.00;96332.25;5028853;28;20103;-48
2022/08/21 11:13:53;;;;;;;4.82;3.60;;;;;;;29.22;100.00;96330.13;5027681;28;20088;-44
2022/08/21 11:16:27;;;;;;;4.35;3.95;;;;;;;29.05;100.00;96328.44;5029654;28;20555;-44
2022/08/21 11:19:01;;;;;;;4.35;3.88;;;;;;;29.67;100.00;96320.50;5029123;28;20073;-45
2022/08/21 11:21:39;;;;;;;4.13;3.72;;;;;;;30.30;100.00;96312.91;5028053;28;20092;-49
2022/08/21 11:24:26;;;;;;;5.47;4.50;;;;;;;30.02;100.00;96308.81;5019454;28;20488;-45
2022/08/21 11:27:00;;;;;;;5.18;4.15;;;;;;;30.25;100.00;96315.66;5019549;28;20534;-49
2022/08/21 11:29:31;;;;;;;4.38;3.58;;;;;;;29.32;100.00;96313.88;5021039;28;20085;-43
2022/08/21 11:32:22;;;;;;;3.60;3.10;;;;;;;29.19;100.00;96307.03;5023819;28;20088;-50
2022/08/21 11:35:01;;;;;;;5.28;3.40;;;;;;;29.26;100.00;96296.72;5021825;28;20087;-51
2022/08/21 11:37:41;;;;;;;4.23;3.17;;;;;;;28.82;100.00;96299.81;5021647;28;20112;-54
2022/08/21 11:40:16;;;;;;;3.40;3.00;;;;;;;29.54;100.00;96294.63;5021670;28;20518;-49
2022/08/21 11:43:16;;;;;;;4.25;3.15;;;;;;;29.52;90.45;96292.16;5021199;28;20084;-46
2022/08/21 11:45:53;;;;;;;3.20;2.85;;;;;;;29.78;88.02;96297.66;5019995;28;20084;-46
2022/08/21 11:48:34;;;;;;;3.67;2.80;;;;;;;29.29;84.20;96287.25;5018272;28;20084;-44